No particular awareness of the weather is required.    There are no Weather-warnings


Meteo18 Weather Cam more information Meteo18 Weather Cam


Thunder radar more information blitzortung!


Rain radar more information rain snow radar


Visit our other weather sites:

Template documentation
and downloads

And another site



Weather Underground History page Text

Daily Summary for July 17, 2017 Units:  Both    English   Metric
« Previous Day
Next Day »
Daily Weekly Monthly Yearly Custom
  High: Low: Average:
Temperature: 88.7 °F /  31.5 °C 62.4 °F /  16.9 °C 76.6 °F /  24.8 °C
Dew Point: 63.9 °F /  17.7 °C 58.5 °F /  14.7 °C 60.4 °F /  15.8 °C
Humidity: 89 % 38 % 60 %
Wind Speed: 11 mph /  17.7 km/h - 2.3 mph /  3.7 km/h
Wind Gust: 17 mph /  27.4 km/h - -
Wind:- - SE
Pressure: 30.2 in /  1022.6 hPa 30.1 in /  1017.5 hPa -
Precipitation: 0 in /  0.0 mm    
Historical Graphs
 
 
Tabular Data for July 17, 2017
Time Temperature Dew Point Pressure Wind Wind Speed Wind Gust Humidity Rainfall Rate (Hourly)
00:02 69.1 °F /  20.6 °C 60.1 °F /  15.6 °C 30.2 in /  1022.6 hPa WNW 2 mph /  3.2 km/h 2 mph /  3.2 km/h 73 % 0 in /  0.0 mm
00:07 68.7 °F /  20.4 °C 60.1 °F /  15.6 °C 30.2 in /  1022.6 hPa Calm   2 mph /  3.2 km/h 74 % 0 in /  0.0 mm
00:12 68.5 °F /  20.3 °C 59.9 °F /  15.5 °C 30.2 in /  1022.6 hPa Calm   2 mph /  3.2 km/h 74 % 0 in /  0.0 mm
00:17 68.4 °F /  20.2 °C 60.1 °F /  15.6 °C 30.2 in /  1022.6 hPa Calm   2 mph /  3.2 km/h 75 % 0 in /  0.0 mm
00:22 68.2 °F /  20.1 °C 59.9 °F /  15.5 °C 30.2 in /  1022.6 hPa Calm   2 mph /  3.2 km/h 75 % 0 in /  0.0 mm
00:27 68.4 °F /  20.2 °C 59.7 °F /  15.4 °C 30.2 in /  1022.6 hPa NNW 1 mph /  1.6 km/h 1 mph /  1.6 km/h 74 % 0 in /  0.0 mm
00:32 68.9 °F /  20.5 °C 59.9 °F /  15.5 °C 30.2 in /  1022.6 hPa NNW 1 mph /  1.6 km/h 1 mph /  1.6 km/h 73 % 0 in /  0.0 mm
00:42 69.6 °F /  20.9 °C 59.7 °F /  15.4 °C 30.2 in /  1022.6 hPa Calm   2 mph /  3.2 km/h 71 % 0 in /  0.0 mm
00:52 69.4 °F /  20.8 °C 59.5 °F /  15.3 °C 30.2 in /  1022.2 hPa Calm   2 mph /  3.2 km/h 71 % 0 in /  0.0 mm
00:57 69.1 °F /  20.6 °C 59.7 °F /  15.4 °C 30.2 in /  1022.2 hPa Calm   1 mph /  1.6 km/h 72 % 0 in /  0.0 mm
01:02 68.2 °F /  20.1 °C 59.9 °F /  15.5 °C 30.2 in /  1022.2 hPa WNW 1 mph /  1.6 km/h 2 mph /  3.2 km/h 75 % 0 in /  0.0 mm
01:07 67.8 °F /  19.9 °C 59.9 °F /  15.5 °C 30.2 in /  1022.2 hPa WNW 1 mph /  1.6 km/h 2 mph /  3.2 km/h 76 % 0 in /  0.0 mm
01:12 67.6 °F /  19.8 °C 59.7 °F /  15.4 °C 30.2 in /  1022.2 hPa Calm   2 mph /  3.2 km/h 76 % 0 in /  0.0 mm
01:17 67.3 °F /  19.6 °C 59.9 °F /  15.5 °C 30.2 in /  1022.2 hPa Calm   2 mph /  3.2 km/h 77 % 0 in /  0.0 mm
01:22 66.9 °F /  19.4 °C 59.5 °F /  15.3 °C 30.2 in /  1022.2 hPa Calm   1 mph /  1.6 km/h 77 % 0 in /  0.0 mm
01:27 66.9 °F /  19.4 °C 59.9 °F /  15.5 °C 30.2 in /  1022.2 hPa Calm   1 mph /  1.6 km/h 78 % 0 in /  0.0 mm
01:32 66.9 °F /  19.4 °C 59.9 °F /  15.5 °C 30.2 in /  1022.2 hPa Calm   1 mph /  1.6 km/h 78 % 0 in /  0.0 mm
01:37 66.7 °F /  19.3 °C 59.7 °F /  15.4 °C 30.2 in /  1022.2 hPa Calm   1 mph /  1.6 km/h 78 % 0 in /  0.0 mm
01:42 66.6 °F /  19.2 °C 59.5 °F /  15.3 °C 30.2 in /  1022.2 hPa Calm   1 mph /  1.6 km/h 78 % 0 in /  0.0 mm
01:47 66.6 °F /  19.2 °C 59.9 °F /  15.5 °C 30.2 in /  1022.2 hPa Calm   1 mph /  1.6 km/h 79 % 0 in /  0.0 mm
01:52 66.4 °F /  19.1 °C 59.7 °F /  15.4 °C 30.2 in /  1022.2 hPa Calm   1 mph /  1.6 km/h 79 % 0 in /  0.0 mm
01:57 66 °F /  18.9 °C 59.4 °F /  15.2 °C 30.2 in /  1022.2 hPa WNW 1 mph /  1.6 km/h 1 mph /  1.6 km/h 79 % 0 in /  0.0 mm
02:02 65.8 °F /  18.8 °C 59.5 °F /  15.3 °C 30.2 in /  1021.9 hPa WNW 1 mph /  1.6 km/h 2 mph /  3.2 km/h 80 % 0 in /  0.0 mm
02:07 65.7 °F /  18.7 °C 59.7 °F /  15.4 °C 30.2 in /  1022.2 hPa WNW 1 mph /  1.6 km/h 2 mph /  3.2 km/h 81 % 0 in /  0.0 mm
02:17 65.3 °F /  18.5 °C 59.4 °F /  15.2 °C 30.2 in /  1021.9 hPa Calm   2 mph /  3.2 km/h 81 % 0 in /  0.0 mm
02:22 65.1 °F /  18.4 °C 59.2 °F /  15.1 °C 30.2 in /  1021.9 hPa Calm   1 mph /  1.6 km/h 81 % 0 in /  0.0 mm
02:27 65.1 °F /  18.4 °C 59.5 °F /  15.3 °C 30.2 in /  1021.9 hPa Calm   1 mph /  1.6 km/h 82 % 0 in /  0.0 mm
02:32 65.1 °F /  18.4 °C 59.5 °F /  15.3 °C 30.2 in /  1021.9 hPa Calm   1 mph /  1.6 km/h 82 % 0 in /  0.0 mm
02:37 65.1 °F /  18.4 °C 59.2 °F /  15.1 °C 30.2 in /  1021.9 hPa Calm   1 mph /  1.6 km/h 81 % 0 in /  0.0 mm
02:42 64.8 °F /  18.2 °C 59.2 °F /  15.1 °C 30.2 in /  1021.9 hPa Calm   1 mph /  1.6 km/h 82 % 0 in /  0.0 mm
02:47 64.6 °F /  18.1 °C 59.4 °F /  15.2 °C 30.2 in /  1021.9 hPa WNW 1 mph /  1.6 km/h 1 mph /  1.6 km/h 83 % 0 in /  0.0 mm
02:52 64.2 °F /  17.9 °C 59 °F /  15.0 °C 30.2 in /  1021.9 hPa WNW 1 mph /  1.6 km/h 2 mph /  3.2 km/h 83 % 0 in /  0.0 mm
02:57 64 °F /  17.8 °C 59.2 °F /  15.1 °C 30.2 in /  1021.9 hPa Calm   2 mph /  3.2 km/h 84 % 0 in /  0.0 mm
03:02 63.9 °F /  17.7 °C 59 °F /  15.0 °C 30.2 in /  1021.9 hPa Calm   2 mph /  3.2 km/h 84 % 0 in /  0.0 mm
03:07 64.4 °F /  18.0 °C 59.5 °F /  15.3 °C 30.2 in /  1021.6 hPa Calm   2 mph /  3.2 km/h 84 % 0 in /  0.0 mm
03:12 64.6 °F /  18.1 °C 59.4 °F /  15.2 °C 30.2 in /  1021.6 hPa NW 1 mph /  1.6 km/h 1 mph /  1.6 km/h 83 % 0 in /  0.0 mm
03:17 64.2 °F /  17.9 °C 59.4 °F /  15.2 °C 30.2 in /  1021.6 hPa WNW 1 mph /  1.6 km/h 2 mph /  3.2 km/h 84 % 0 in /  0.0 mm
03:22 64 °F /  17.8 °C 59.2 °F /  15.1 °C 30.2 in /  1021.6 hPa Calm   2 mph /  3.2 km/h 84 % 0 in /  0.0 mm
03:27 64.2 °F /  17.9 °C 59.4 °F /  15.2 °C 30.2 in /  1021.6 hPa Calm   2 mph /  3.2 km/h 84 % 0 in /  0.0 mm
03:32 64.6 °F /  18.1 °C 59.4 °F /  15.2 °C 30.2 in /  1021.6 hPa Calm   2 mph /  3.2 km/h 83 % 0 in /  0.0 mm
03:37 64.6 °F /  18.1 °C 59.4 °F /  15.2 °C 30.2 in /  1021.6 hPa Calm   1 mph /  1.6 km/h 83 % 0 in /  0.0 mm
03:42 64.2 °F /  17.9 °C 59 °F /  15.0 °C 30.2 in /  1021.6 hPa North 1 mph /  1.6 km/h 1 mph /  1.6 km/h 83 % 0 in /  0.0 mm
03:47 64.4 °F /  18.0 °C 59.5 °F /  15.3 °C 30.2 in /  1021.6 hPa NNW 2 mph /  3.2 km/h 2 mph /  3.2 km/h 84 % 0 in /  0.0 mm
03:52 64.9 °F /  18.3 °C 59.7 °F /  15.4 °C 30.2 in /  1021.6 hPa North 3 mph /  4.8 km/h 4 mph /  6.4 km/h 83 % 0 in /  0.0 mm
03:57 64.9 °F /  18.3 °C 59.4 °F /  15.2 °C 30.2 in /  1021.6 hPa WNW 3 mph /  4.8 km/h 4 mph /  6.4 km/h 82 % 0 in /  0.0 mm
04:02 65.3 °F /  18.5 °C 59.7 °F /  15.4 °C 30.2 in /  1021.6 hPa NW 2 mph /  3.2 km/h 5 mph /  8.0 km/h 82 % 0 in /  0.0 mm
04:07 65.5 °F /  18.6 °C 59.5 °F /  15.3 °C 30.2 in /  1021.6 hPa NW 1 mph /  1.6 km/h 5 mph /  8.0 km/h 81 % 0 in /  0.0 mm
04:12 65.8 °F /  18.8 °C 59.5 °F /  15.3 °C 30.2 in /  1021.6 hPa NW 1 mph /  1.6 km/h 4 mph /  6.4 km/h 80 % 0 in /  0.0 mm
04:17 65.8 °F /  18.8 °C 59.9 °F /  15.5 °C 30.2 in /  1021.6 hPa WNW 2 mph /  3.2 km/h 3 mph /  4.8 km/h 81 % 0 in /  0.0 mm
04:27 66 °F /  18.9 °C 59.7 °F /  15.4 °C 30.2 in /  1021.6 hPa Calm   3 mph /  4.8 km/h 80 % 0 in /  0.0 mm
04:32 65.7 °F /  18.7 °C 59.7 °F /  15.4 °C 30.2 in /  1021.6 hPa NNW 1 mph /  1.6 km/h 3 mph /  4.8 km/h 81 % 0 in /  0.0 mm
04:37 65.5 °F /  18.6 °C 59.5 °F /  15.3 °C 30.2 in /  1021.6 hPa Calm   2 mph /  3.2 km/h 81 % 0 in /  0.0 mm
04:42 65.5 °F /  18.6 °C 59.5 °F /  15.3 °C 30.2 in /  1021.6 hPa Calm   2 mph /  3.2 km/h 81 % 0 in /  0.0 mm
04:47 65.1 °F /  18.4 °C 59.5 °F /  15.3 °C 30.2 in /  1021.6 hPa North 1 mph /  1.6 km/h 1 mph /  1.6 km/h 82 % 0 in /  0.0 mm
04:52 65.1 °F /  18.4 °C 59.5 °F /  15.3 °C 30.2 in /  1021.6 hPa North 1 mph /  1.6 km/h 1 mph /  1.6 km/h 82 % 0 in /  0.0 mm
04:57 65.1 °F /  18.4 °C 59.5 °F /  15.3 °C 30.2 in /  1021.6 hPa NNW 1 mph /  1.6 km/h 1 mph /  1.6 km/h 82 % 0 in /  0.0 mm
05:07 64.9 °F /  18.3 °C 59.4 °F /  15.2 °C 30.2 in /  1021.6 hPa Calm   1 mph /  1.6 km/h 82 % 0 in /  0.0 mm
05:12 64.8 °F /  18.2 °C 59.5 °F /  15.3 °C 30.2 in /  1021.6 hPa NW 1 mph /  1.6 km/h 1 mph /  1.6 km/h 83 % 0 in /  0.0 mm
05:17 64.9 °F /  18.3 °C 59.9 °F /  15.5 °C 30.2 in /  1021.6 hPa Calm   2 mph /  3.2 km/h 84 % 0 in /  0.0 mm
05:22 64.2 °F /  17.9 °C 59 °F /  15.0 °C 30.2 in /  1021.6 hPa Calm   2 mph /  3.2 km/h 83 % 0 in /  0.0 mm
05:32 63.7 °F /  17.6 °C 59 °F /  15.0 °C 30.2 in /  1021.6 hPa WNW 1 mph /  1.6 km/h 2 mph /  3.2 km/h 85 % 0 in /  0.0 mm
05:37 63.3 °F /  17.4 °C 59 °F /  15.0 °C 30.2 in /  1021.6 hPa WNW 1 mph /  1.6 km/h 1 mph /  1.6 km/h 86 % 0 in /  0.0 mm
05:42 63.3 °F /  17.4 °C 59.4 °F /  15.2 °C 30.2 in /  1021.6 hPa Calm   1 mph /  1.6 km/h 87 % 0 in /  0.0 mm
05:52 63.1 °F /  17.3 °C 58.8 °F /  14.9 °C 30.2 in /  1021.9 hPa Calm   1 mph /  1.6 km/h 86 % 0 in /  0.0 mm
05:57 63.1 °F /  17.3 °C 59.2 °F /  15.1 °C 30.2 in /  1021.9 hPa Calm   1 mph /  1.6 km/h 87 % 0 in /  0.0 mm
06:02 63.1 °F /  17.3 °C 59.2 °F /  15.1 °C 30.2 in /  1021.9 hPa Calm   1 mph /  1.6 km/h 87 % 0 in /  0.0 mm
06:12 63 °F /  17.2 °C 59.4 °F /  15.2 °C 30.2 in /  1021.9 hPa Calm   1 mph /  1.6 km/h 88 % 0 in /  0.0 mm
06:17 63.1 °F /  17.3 °C 59.5 °F /  15.3 °C 30.2 in /  1021.9 hPa Calm   1 mph /  1.6 km/h 88 % 0 in /  0.0 mm
06:22 63.3 °F /  17.4 °C 59.7 °F /  15.4 °C 30.2 in /  1021.9 hPa WNW 1 mph /  1.6 km/h 1 mph /  1.6 km/h 88 % 0 in /  0.0 mm
06:32 63.3 °F /  17.4 °C 59 °F /  15.0 °C 30.2 in /  1021.9 hPa Calm   1 mph /  1.6 km/h 86 % 0 in /  0.0 mm
06:42 62.4 °F /  16.9 °C 59.2 °F /  15.1 °C 30.2 in /  1021.9 hPa Calm   1 mph /  1.6 km/h 89 % 0 in /  0.0 mm
06:47 62.6 °F /  17.0 °C 59.4 °F /  15.2 °C 30.2 in /  1021.9 hPa Calm   1 mph /  1.6 km/h 89 % 0 in /  0.0 mm
06:52 62.8 °F /  17.1 °C 59.5 °F /  15.3 °C 30.2 in /  1021.9 hPa Calm   1 mph /  1.6 km/h 89 % 0 in /  0.0 mm
06:57 63.3 °F /  17.4 °C 60.1 °F /  15.6 °C 30.2 in /  1021.9 hPa Calm     89 % 0 in /  0.0 mm
07:02 63.7 °F /  17.6 °C 60.1 °F /  15.6 °C 30.2 in /  1021.9 hPa Calm     88 % 0 in /  0.0 mm
07:12 64.6 °F /  18.1 °C 60.6 °F /  15.9 °C 30.2 in /  1021.9 hPa Calm     87 % 0 in /  0.0 mm
07:17 65.1 °F /  18.4 °C 61.2 °F /  16.2 °C 30.2 in /  1021.9 hPa Calm     87 % 0 in /  0.0 mm
07:27 68 °F /  20.0 °C 63 °F /  17.2 °C 30.2 in /  1021.9 hPa Calm     84 % 0 in /  0.0 mm
07:32 68.5 °F /  20.3 °C 62.1 °F /  16.7 °C 30.2 in /  1021.9 hPa Calm     80 % 0 in /  0.0 mm
07:42 68.9 °F /  20.5 °C 62.1 °F /  16.7 °C 30.2 in /  1021.9 hPa Calm     79 % 0 in /  0.0 mm
07:47 68.9 °F /  20.5 °C 61.7 °F /  16.5 °C 30.2 in /  1021.9 hPa NNE 1 mph /  1.6 km/h 2 mph /  3.2 km/h 78 % 0 in /  0.0 mm
07:52 69.1 °F /  20.6 °C 62.2 °F /  16.8 °C 30.2 in /  1021.9 hPa NNE 2 mph /  3.2 km/h 3 mph /  4.8 km/h 79 % 0 in /  0.0 mm
07:57 69.3 °F /  20.7 °C 62.4 °F /  16.9 °C 30.2 in /  1021.9 hPa Calm   3 mph /  4.8 km/h 79 % 0 in /  0.0 mm
08:02 70 °F /  21.1 °C 62.8 °F /  17.1 °C 30.2 in /  1021.9 hPa NNE 2 mph /  3.2 km/h 3 mph /  4.8 km/h 78 % 0 in /  0.0 mm
08:12 70.5 °F /  21.4 °C 62.6 °F /  17.0 °C 30.2 in /  1022.2 hPa NNE 1 mph /  1.6 km/h 2 mph /  3.2 km/h 76 % 0 in /  0.0 mm
08:17 70.9 °F /  21.6 °C 63 °F /  17.2 °C 30.2 in /  1022.2 hPa Calm   2 mph /  3.2 km/h 76 % 0 in /  0.0 mm
08:22 71.4 °F /  21.9 °C 63.1 °F /  17.3 °C 30.2 in /  1022.2 hPa ENE 1 mph /  1.6 km/h 2 mph /  3.2 km/h 75 % 0 in /  0.0 mm
08:32 71.4 °F /  21.9 °C 63.1 °F /  17.3 °C 30.2 in /  1022.2 hPa ENE 1 mph /  1.6 km/h 2 mph /  3.2 km/h 75 % 0 in /  0.0 mm
08:42 72.1 °F /  22.3 °C 63.9 °F /  17.7 °C 30.2 in /  1021.9 hPa ENE 1 mph /  1.6 km/h 3 mph /  4.8 km/h 75 % 0 in /  0.0 mm
08:47 72.5 °F /  22.5 °C 63.7 °F /  17.6 °C 30.2 in /  1021.9 hPa NE 2 mph /  3.2 km/h 3 mph /  4.8 km/h 74 % 0 in /  0.0 mm
08:52 72.9 °F /  22.7 °C 63 °F /  17.2 °C 30.2 in /  1022.2 hPa East 2 mph /  3.2 km/h 3 mph /  4.8 km/h 71 % 0 in /  0.0 mm
08:57 73.2 °F /  22.9 °C 63.3 °F /  17.4 °C 30.2 in /  1021.9 hPa Calm   3 mph /  4.8 km/h 71 % 0 in /  0.0 mm
09:02 73.8 °F /  23.2 °C 63.3 °F /  17.4 °C 30.2 in /  1021.9 hPa North 2 mph /  3.2 km/h 3 mph /  4.8 km/h 70 % 0 in /  0.0 mm
09:12 75.4 °F /  24.1 °C 63.7 °F /  17.6 °C 30.2 in /  1021.9 hPa Calm   3 mph /  4.8 km/h 67 % 0 in /  0.0 mm
09:17 76.1 °F /  24.5 °C 63 °F /  17.2 °C 30.2 in /  1021.9 hPa SW 2 mph /  3.2 km/h 2 mph /  3.2 km/h 64 % 0 in /  0.0 mm
09:22 76.3 °F /  24.6 °C 63.7 °F /  17.6 °C 30.2 in /  1021.9 hPa SSW 3 mph /  4.8 km/h 3 mph /  4.8 km/h 65 % 0 in /  0.0 mm
09:32 76.5 °F /  24.7 °C 63 °F /  17.2 °C 30.2 in /  1021.9 hPa SE 1 mph /  1.6 km/h 2 mph /  3.2 km/h 63 % 0 in /  0.0 mm
09:42 78.6 °F /  25.9 °C 63.5 °F /  17.5 °C 30.2 in /  1021.9 hPa Calm   3 mph /  4.8 km/h 60 % 0 in /  0.0 mm
09:52 79 °F /  26.1 °C 63 °F /  17.2 °C 30.2 in /  1021.9 hPa SW 4 mph /  6.4 km/h 4 mph /  6.4 km/h 58 % 0 in /  0.0 mm
09:57 78.4 °F /  25.8 °C 62.4 °F /  16.9 °C 30.2 in /  1021.9 hPa East 2 mph /  3.2 km/h 4 mph /  6.4 km/h 58 % 0 in /  0.0 mm
10:02 79 °F /  26.1 °C 63 °F /  17.2 °C 30.2 in /  1021.9 hPa Calm   4 mph /  6.4 km/h 58 % 0 in /  0.0 mm
10:12 79.3 °F /  26.3 °C 62.2 °F /  16.8 °C 30.2 in /  1021.9 hPa Calm   4 mph /  6.4 km/h 56 % 0 in /  0.0 mm
10:17 79.9 °F /  26.6 °C 62.2 °F /  16.8 °C 30.2 in /  1021.6 hPa WSW 2 mph /  3.2 km/h 6 mph /  9.7 km/h 55 % 0 in /  0.0 mm
10:22 79.9 °F /  26.6 °C 62.8 °F /  17.1 °C 30.2 in /  1021.6 hPa Calm   6 mph /  9.7 km/h 56 % 0 in /  0.0 mm
10:32 80.2 °F /  26.8 °C 62.6 °F /  17.0 °C 30.2 in /  1021.6 hPa East 4 mph /  6.4 km/h 4 mph /  6.4 km/h 55 % 0 in /  0.0 mm
10:42 79.9 °F /  26.6 °C 62.8 °F /  17.1 °C 30.2 in /  1021.6 hPa SE 3 mph /  4.8 km/h 6 mph /  9.7 km/h 56 % 0 in /  0.0 mm
10:52 80.1 °F /  26.7 °C 63.5 °F /  17.5 °C 30.2 in /  1021.6 hPa ENE 2 mph /  3.2 km/h 6 mph /  9.7 km/h 57 % 0 in /  0.0 mm
10:57 80.2 °F /  26.8 °C 62.1 °F /  16.7 °C 30.2 in /  1021.6 hPa ENE 7 mph /  11.3 km/h 8 mph /  12.9 km/h 54 % 0 in /  0.0 mm
11:02 80.2 °F /  26.8 °C 63.1 °F /  17.3 °C 30.2 in /  1021.6 hPa East 2 mph /  3.2 km/h 8 mph /  12.9 km/h 56 % 0 in /  0.0 mm
11:12 80.4 °F /  26.9 °C 62.8 °F /  17.1 °C 30.2 in /  1021.6 hPa East 3 mph /  4.8 km/h 9 mph /  14.5 km/h 55 % 0 in /  0.0 mm
11:17 81.3 °F /  27.4 °C 63.1 °F /  17.3 °C 30.2 in /  1021.6 hPa ENE 7 mph /  11.3 km/h 9 mph /  14.5 km/h 54 % 0 in /  0.0 mm
11:22 81.7 °F /  27.6 °C 63 °F /  17.2 °C 30.2 in /  1021.6 hPa Calm   8 mph /  12.9 km/h 53 % 0 in /  0.0 mm
11:32 81.9 °F /  27.7 °C 62.4 °F /  16.9 °C 30.2 in /  1021.2 hPa SE 3 mph /  4.8 km/h 7 mph /  11.3 km/h 52 % 0 in /  0.0 mm
11:42 82 °F /  27.8 °C 63.1 °F /  17.3 °C 30.2 in /  1021.2 hPa ENE 6 mph /  9.7 km/h 7 mph /  11.3 km/h 53 % 0 in /  0.0 mm
11:47 82 °F /  27.8 °C 62.6 °F /  17.0 °C 30.2 in /  1021.2 hPa East 5 mph /  8.0 km/h 9 mph /  14.5 km/h 52 % 0 in /  0.0 mm
11:52 81.9 °F /  27.7 °C 62.4 °F /  16.9 °C 30.2 in /  1021.2 hPa NE 6 mph /  9.7 km/h 13 mph /  20.9 km/h 52 % 0 in /  0.0 mm
11:57 81.9 °F /  27.7 °C 61.9 °F /  16.6 °C 30.2 in /  1021.2 hPa ENE 2 mph /  3.2 km/h 13 mph /  20.9 km/h 51 % 0 in /  0.0 mm
12:02 81.9 °F /  27.7 °C 62.4 °F /  16.9 °C 30.2 in /  1021.2 hPa NE 5 mph /  8.0 km/h 16 mph /  25.7 km/h 52 % 0 in /  0.0 mm
12:12 82.2 °F /  27.9 °C 62.2 °F /  16.8 °C 30.2 in /  1021.2 hPa ENE 7 mph /  11.3 km/h 16 mph /  25.7 km/h 51 % 0 in /  0.0 mm
12:17 82.6 °F /  28.1 °C 62.6 °F /  17.0 °C 30.2 in /  1020.9 hPa NE 3 mph /  4.8 km/h 9 mph /  14.5 km/h 51 % 0 in /  0.0 mm
12:22 82 °F /  27.8 °C 62.6 °F /  17.0 °C 30.2 in /  1020.9 hPa NE 3 mph /  4.8 km/h 9 mph /  14.5 km/h 52 % 0 in /  0.0 mm
12:32 82.6 °F /  28.1 °C 63.1 °F /  17.3 °C 30.2 in /  1020.9 hPa NE 6 mph /  9.7 km/h 10 mph /  16.1 km/h 52 % 0 in /  0.0 mm
12:37 82.9 °F /  28.3 °C 62.4 °F /  16.9 °C 30.2 in /  1020.9 hPa ENE 7 mph /  11.3 km/h 10 mph /  16.1 km/h 50 % 0 in /  0.0 mm
12:42 82.4 °F /  28.0 °C 62.4 °F /  16.9 °C 30.2 in /  1020.9 hPa ENE 5 mph /  8.0 km/h 10 mph /  16.1 km/h 51 % 0 in /  0.0 mm
12:47 82.8 °F /  28.2 °C 63.3 °F /  17.4 °C 30.2 in /  1020.9 hPa SSE 1 mph /  1.6 km/h 11 mph /  17.7 km/h 52 % 0 in /  0.0 mm
12:52 83.7 °F /  28.7 °C 61.9 °F /  16.6 °C 30.2 in /  1020.9 hPa ENE 8 mph /  12.9 km/h 11 mph /  17.7 km/h 48 % 0 in /  0.0 mm
12:57 84 °F /  28.9 °C 62.2 °F /  16.8 °C 30.2 in /  1020.9 hPa ESE 5 mph /  8.0 km/h 11 mph /  17.7 km/h 48 % 0 in /  0.0 mm
13:02 83.8 °F /  28.8 °C 62.1 °F /  16.7 °C 30.1 in /  1020.5 hPa ESE 1 mph /  1.6 km/h 11 mph /  17.7 km/h 48 % 0 in /  0.0 mm
13:12 83.3 °F /  28.5 °C 62.8 °F /  17.1 °C 30.1 in /  1020.5 hPa NE 7 mph /  11.3 km/h 12 mph /  19.3 km/h 50 % 0 in /  0.0 mm
13:17 83.7 °F /  28.7 °C 61.9 °F /  16.6 °C 30.1 in /  1020.5 hPa ENE 10 mph /  16.1 km/h 11 mph /  17.7 km/h 48 % 0 in /  0.0 mm
13:22 84.4 °F /  29.1 °C 61.9 °F /  16.6 °C 30.1 in /  1020.5 hPa NE 10 mph /  16.1 km/h 11 mph /  17.7 km/h 47 % 0 in /  0.0 mm
13:32 83.1 °F /  28.4 °C 60.8 °F /  16.0 °C 30.1 in /  1020.5 hPa NE 6 mph /  9.7 km/h 11 mph /  17.7 km/h 47 % 0 in /  0.0 mm
13:37 83.7 °F /  28.7 °C 61.3 °F /  16.3 °C 30.1 in /  1020.2 hPa NNE 2 mph /  3.2 km/h 11 mph /  17.7 km/h 47 % 0 in /  0.0 mm
13:42 83.7 °F /  28.7 °C 60.6 °F /  15.9 °C 30.1 in /  1020.5 hPa NE 6 mph /  9.7 km/h 13 mph /  20.9 km/h 46 % 0 in /  0.0 mm
13:47 83.1 °F /  28.4 °C 60.3 °F /  15.7 °C 30.1 in /  1020.2 hPa NE 4 mph /  6.4 km/h 13 mph /  20.9 km/h 46 % 0 in /  0.0 mm
13:57 84.6 °F /  29.2 °C 60.8 °F /  16.0 °C 30.1 in /  1020.2 hPa ENE 9 mph /  14.5 km/h 12 mph /  19.3 km/h 45 % 0 in /  0.0 mm
14:02 84.4 °F /  29.1 °C 60.8 °F /  16.0 °C 30.1 in /  1020.2 hPa NNE 3 mph /  4.8 km/h 12 mph /  19.3 km/h 45 % 0 in /  0.0 mm
14:07 84.9 °F /  29.4 °C 60.6 °F /  15.9 °C 30.1 in /  1020.2 hPa ESE 10 mph /  16.1 km/h 12 mph /  19.3 km/h 44 % 0 in /  0.0 mm
14:12 85.3 °F /  29.6 °C 59.5 °F /  15.3 °C 30.1 in /  1020.2 hPa ENE 7 mph /  11.3 km/h 13 mph /  20.9 km/h 42 % 0 in /  0.0 mm
14:17 85.5 °F /  29.7 °C 60.4 °F /  15.8 °C 30.1 in /  1020.2 hPa ENE 5 mph /  8.0 km/h 13 mph /  20.9 km/h 43 % 0 in /  0.0 mm
14:22 84.9 °F /  29.4 °C 58.6 °F /  14.8 °C 30.1 in /  1019.9 hPa ENE 1 mph /  1.6 km/h 13 mph /  20.9 km/h 41 % 0 in /  0.0 mm
14:27 85.3 °F /  29.6 °C 60.3 °F /  15.7 °C 30.1 in /  1019.9 hPa East 6 mph /  9.7 km/h 12 mph /  19.3 km/h 43 % 0 in /  0.0 mm
14:32 85.8 °F /  29.9 °C 60.8 °F /  16.0 °C 30.1 in /  1019.9 hPa ENE 9 mph /  14.5 km/h 12 mph /  19.3 km/h 43 % 0 in /  0.0 mm
14:37 85.6 °F /  29.8 °C 60.6 °F /  15.9 °C 30.1 in /  1019.9 hPa ESE 2 mph /  3.2 km/h 12 mph /  19.3 km/h 43 % 0 in /  0.0 mm
14:42 85.6 °F /  29.8 °C 60.6 °F /  15.9 °C 30.1 in /  1019.9 hPa ENE 6 mph /  9.7 km/h 13 mph /  20.9 km/h 43 % 0 in /  0.0 mm
14:47 85.6 °F /  29.8 °C 59.9 °F /  15.5 °C 30.1 in /  1019.9 hPa ENE 3 mph /  4.8 km/h 13 mph /  20.9 km/h 42 % 0 in /  0.0 mm
14:52 85.6 °F /  29.8 °C 60.6 °F /  15.9 °C 30.1 in /  1019.9 hPa East 2 mph /  3.2 km/h 13 mph /  20.9 km/h 43 % 0 in /  0.0 mm
14:57 86.4 °F /  30.2 °C 59.9 °F /  15.5 °C 30.1 in /  1019.9 hPa SE 5 mph /  8.0 km/h 10 mph /  16.1 km/h 41 % 0 in /  0.0 mm
15:02 87.3 °F /  30.7 °C 59.9 °F /  15.5 °C 30.1 in /  1019.5 hPa ENE 8 mph /  12.9 km/h 8 mph /  12.9 km/h 40 % 0 in /  0.0 mm
15:12 87.3 °F /  30.7 °C 59.4 °F /  15.2 °C 30.1 in /  1019.5 hPa East 6 mph /  9.7 km/h 15 mph /  24.1 km/h 39 % 0 in /  0.0 mm
15:17 87.1 °F /  30.6 °C 58.5 °F /  14.7 °C 30.1 in /  1019.5 hPa ENE 7 mph /  11.3 km/h 15 mph /  24.1 km/h 38 % 0 in /  0.0 mm
15:22 86.7 °F /  30.4 °C 58.8 °F /  14.9 °C 30.1 in /  1019.5 hPa NE 3 mph /  4.8 km/h 17 mph /  27.4 km/h 39 % 0 in /  0.0 mm
15:32 86.5 °F /  30.3 °C 58.6 °F /  14.8 °C 30.1 in /  1019.5 hPa ENE 7 mph /  11.3 km/h 14 mph /  22.5 km/h 39 % 0 in /  0.0 mm
15:37 86.5 °F /  30.3 °C 58.6 °F /  14.8 °C 30.1 in /  1019.2 hPa ENE 7 mph /  11.3 km/h 14 mph /  22.5 km/h 39 % 0 in /  0.0 mm
15:42 86.9 °F /  30.5 °C 59.7 °F /  15.4 °C 30.1 in /  1019.2 hPa East 4 mph /  6.4 km/h 14 mph /  22.5 km/h 40 % 0 in /  0.0 mm
15:47 87.3 °F /  30.7 °C 58.6 °F /  14.8 °C 30.1 in /  1019.2 hPa East 4 mph /  6.4 km/h 12 mph /  19.3 km/h 38 % 0 in /  0.0 mm
15:52 87.4 °F /  30.8 °C 58.6 °F /  14.8 °C 30.1 in /  1019.2 hPa ENE 10 mph /  16.1 km/h 12 mph /  19.3 km/h 38 % 0 in /  0.0 mm
15:57 87.4 °F /  30.8 °C 58.6 °F /  14.8 °C 30.1 in /  1019.2 hPa ENE 4 mph /  6.4 km/h 12 mph /  19.3 km/h 38 % 0 in /  0.0 mm
16:02 87.3 °F /  30.7 °C 59.4 °F /  15.2 °C 30.1 in /  1019.2 hPa ENE 2 mph /  3.2 km/h 13 mph /  20.9 km/h 39 % 0 in /  0.0 mm
16:12 88.7 °F /  31.5 °C 59.9 °F /  15.5 °C 30.1 in /  1018.8 hPa ENE 7 mph /  11.3 km/h 10 mph /  16.1 km/h 38 % 0 in /  0.0 mm
16:17 87.3 °F /  30.7 °C 59.4 °F /  15.2 °C 30.1 in /  1018.8 hPa NE 6 mph /  9.7 km/h 11 mph /  17.7 km/h 39 % 0 in /  0.0 mm
16:22 86.4 °F /  30.2 °C 59.2 °F /  15.1 °C 30.1 in /  1018.8 hPa ESE 3 mph /  4.8 km/h 11 mph /  17.7 km/h 40 % 0 in /  0.0 mm
16:32 87.3 °F /  30.7 °C 59.4 °F /  15.2 °C 30.1 in /  1018.8 hPa ENE 6 mph /  9.7 km/h 9 mph /  14.5 km/h 39 % 0 in /  0.0 mm
16:37 86.9 °F /  30.5 °C 59.7 °F /  15.4 °C 30.1 in /  1018.8 hPa NE 4 mph /  6.4 km/h 9 mph /  14.5 km/h 40 % 0 in /  0.0 mm
16:42 87.8 °F /  31.0 °C 60.4 °F /  15.8 °C 30.1 in /  1018.8 hPa NE 11 mph /  17.7 km/h 11 mph /  17.7 km/h 40 % 0 in /  0.0 mm
16:47 87.1 °F /  30.6 °C 59.9 °F /  15.5 °C 30.1 in /  1018.8 hPa East 5 mph /  8.0 km/h 12 mph /  19.3 km/h 40 % 0 in /  0.0 mm
16:52 85.8 °F /  29.9 °C 60.1 °F /  15.6 °C 30.1 in /  1018.8 hPa NNE 7 mph /  11.3 km/h 12 mph /  19.3 km/h 42 % 0 in /  0.0 mm
16:57 85.6 °F /  29.8 °C 59.2 °F /  15.1 °C 30.1 in /  1018.8 hPa East 2 mph /  3.2 km/h 12 mph /  19.3 km/h 41 % 0 in /  0.0 mm
17:02 86.5 °F /  30.3 °C 60.1 °F /  15.6 °C 30.1 in /  1018.8 hPa ESE 3 mph /  4.8 km/h 11 mph /  17.7 km/h 41 % 0 in /  0.0 mm
17:12 88.3 °F /  31.3 °C 61 °F /  16.1 °C 30.1 in /  1018.5 hPa SE 4 mph /  6.4 km/h 6 mph /  9.7 km/h 40 % 0 in /  0.0 mm
17:17 88.2 °F /  31.2 °C 60.8 °F /  16.0 °C 30.1 in /  1018.5 hPa East 6 mph /  9.7 km/h 13 mph /  20.9 km/h 40 % 0 in /  0.0 mm
17:22 88.3 °F /  31.3 °C 61 °F /  16.1 °C 30.1 in /  1018.5 hPa ESE 4 mph /  6.4 km/h 13 mph /  20.9 km/h 40 % 0 in /  0.0 mm
17:27 88 °F /  31.1 °C 59.9 °F /  15.5 °C 30.1 in /  1018.2 hPa ESE 5 mph /  8.0 km/h 13 mph /  20.9 km/h 39 % 0 in /  0.0 mm
17:32 88 °F /  31.1 °C 60.6 °F /  15.9 °C 30.1 in /  1018.2 hPa ENE 7 mph /  11.3 km/h 10 mph /  16.1 km/h 40 % 0 in /  0.0 mm
17:37 88.2 °F /  31.2 °C 60.8 °F /  16.0 °C 30.1 in /  1018.2 hPa ENE 2 mph /  3.2 km/h 10 mph /  16.1 km/h 40 % 0 in /  0.0 mm
17:42 88.3 °F /  31.3 °C 61 °F /  16.1 °C 30.1 in /  1018.2 hPa ENE 4 mph /  6.4 km/h 10 mph /  16.1 km/h 40 % 0 in /  0.0 mm
17:47 88.2 °F /  31.2 °C 60.1 °F /  15.6 °C 30.1 in /  1018.2 hPa ENE 5 mph /  8.0 km/h 14 mph /  22.5 km/h 39 % 0 in /  0.0 mm
17:52 87.1 °F /  30.6 °C 59.2 °F /  15.1 °C 30.1 in /  1018.2 hPa ENE 9 mph /  14.5 km/h 15 mph /  24.1 km/h 39 % 0 in /  0.0 mm
17:57 86.7 °F /  30.4 °C 60.3 °F /  15.7 °C 30.1 in /  1018.2 hPa ENE 7 mph /  11.3 km/h 15 mph /  24.1 km/h 41 % 0 in /  0.0 mm
18:02 87.4 °F /  30.8 °C 60.1 °F /  15.6 °C 30.1 in /  1018.2 hPa ENE 7 mph /  11.3 km/h 15 mph /  24.1 km/h 40 % 0 in /  0.0 mm
18:07 87.3 °F /  30.7 °C 60.6 °F /  15.9 °C 30.1 in /  1017.8 hPa East 1 mph /  1.6 km/h 12 mph /  19.3 km/h 41 % 0 in /  0.0 mm
18:12 87.8 °F /  31.0 °C 60.4 °F /  15.8 °C 30.1 in /  1017.8 hPa ENE 2 mph /  3.2 km/h 12 mph /  19.3 km/h 40 % 0 in /  0.0 mm
18:17 88 °F /  31.1 °C 59.9 °F /  15.5 °C 30.1 in /  1017.8 hPa ESE 3 mph /  4.8 km/h 12 mph /  19.3 km/h 39 % 0 in /  0.0 mm
18:22 87.6 °F /  30.9 °C 59.5 °F /  15.3 °C 30.1 in /  1017.8 hPa SSE 4 mph /  6.4 km/h 12 mph /  19.3 km/h 39 % 0 in /  0.0 mm
18:27 87.6 °F /  30.9 °C 60.3 °F /  15.7 °C 30.1 in /  1017.8 hPa ENE 4 mph /  6.4 km/h 12 mph /  19.3 km/h 40 % 0 in /  0.0 mm
18:32 88.3 °F /  31.3 °C 60.3 °F /  15.7 °C 30.1 in /  1017.8 hPa East 2 mph /  3.2 km/h 9 mph /  14.5 km/h 39 % 0 in /  0.0 mm
18:42 87.6 °F /  30.9 °C 59.5 °F /  15.3 °C 30.1 in /  1017.8 hPa ENE 3 mph /  4.8 km/h 12 mph /  19.3 km/h 39 % 0 in /  0.0 mm
18:47 87.3 °F /  30.7 °C 59.4 °F /  15.2 °C 30.1 in /  1017.8 hPa NE 4 mph /  6.4 km/h 15 mph /  24.1 km/h 39 % 0 in /  0.0 mm
18:52 86.7 °F /  30.4 °C 59.5 °F /  15.3 °C 30.1 in /  1017.8 hPa ENE 8 mph /  12.9 km/h 15 mph /  24.1 km/h 40 % 0 in /  0.0 mm
18:57 86.5 °F /  30.3 °C 60.1 °F /  15.6 °C 30.1 in /  1017.8 hPa ENE 6 mph /  9.7 km/h 15 mph /  24.1 km/h 41 % 0 in /  0.0 mm
19:02 86.5 °F /  30.3 °C 59.4 °F /  15.2 °C 30.1 in /  1017.8 hPa ENE 4 mph /  6.4 km/h 12 mph /  19.3 km/h 40 % 0 in /  0.0 mm
19:07 86.9 °F /  30.5 °C 59.7 °F /  15.4 °C 30.1 in /  1017.8 hPa East 5 mph /  8.0 km/h 12 mph /  19.3 km/h 40 % 0 in /  0.0 mm
19:12 86.7 °F /  30.4 °C 59.5 °F /  15.3 °C 30.1 in /  1017.8 hPa ENE 3 mph /  4.8 km/h 12 mph /  19.3 km/h 40 % 0 in /  0.0 mm
19:22 86.9 °F /  30.5 °C 59.7 °F /  15.4 °C 30.1 in /  1017.5 hPa ENE 3 mph /  4.8 km/h 10 mph /  16.1 km/h 40 % 0 in /  0.0 mm
19:32 87.1 °F /  30.6 °C 59.9 °F /  15.5 °C 30.1 in /  1017.5 hPa ESE 4 mph /  6.4 km/h 7 mph /  11.3 km/h 40 % 0 in /  0.0 mm
19:37 87.4 °F /  30.8 °C 60.1 °F /  15.6 °C 30.1 in /  1017.5 hPa ESE 1 mph /  1.6 km/h 7 mph /  11.3 km/h 40 % 0 in /  0.0 mm
19:42 87.3 °F /  30.7 °C 59.4 °F /  15.2 °C 30.1 in /  1017.5 hPa East 4 mph /  6.4 km/h 6 mph /  9.7 km/h 39 % 0 in /  0.0 mm
19:47 86.9 °F /  30.5 °C 59.7 °F /  15.4 °C 30.1 in /  1017.5 hPa East 5 mph /  8.0 km/h 12 mph /  19.3 km/h 40 % 0 in /  0.0 mm
19:52 86.7 °F /  30.4 °C 59.5 °F /  15.3 °C 30.1 in /  1017.5 hPa East 1 mph /  1.6 km/h 12 mph /  19.3 km/h 40 % 0 in /  0.0 mm
19:57 86.7 °F /  30.4 °C 59.5 °F /  15.3 °C 30.1 in /  1017.5 hPa East 7 mph /  11.3 km/h 12 mph /  19.3 km/h 40 % 0 in /  0.0 mm
20:02 86.5 °F /  30.3 °C 59.4 °F /  15.2 °C 30.1 in /  1017.5 hPa East 1 mph /  1.6 km/h 10 mph /  16.1 km/h 40 % 0 in /  0.0 mm
20:12 86.7 °F /  30.4 °C 59.5 °F /  15.3 °C 30.1 in /  1017.5 hPa ENE 2 mph /  3.2 km/h 10 mph /  16.1 km/h 40 % 0 in /  0.0 mm
20:17 86.2 °F /  30.1 °C 59 °F /  15.0 °C 30.1 in /  1017.5 hPa East 5 mph /  8.0 km/h 7 mph /  11.3 km/h 40 % 0 in /  0.0 mm
20:22 85.8 °F /  29.9 °C 59.4 °F /  15.2 °C 30.1 in /  1017.5 hPa East 3 mph /  4.8 km/h 7 mph /  11.3 km/h 41 % 0 in /  0.0 mm
20:27 85.8 °F /  29.9 °C 59.4 °F /  15.2 °C 30.1 in /  1017.5 hPa East 1 mph /  1.6 km/h 7 mph /  11.3 km/h 41 % 0 in /  0.0 mm
20:32 85.8 °F /  29.9 °C 59.4 °F /  15.2 °C 30.1 in /  1017.5 hPa East 3 mph /  4.8 km/h 7 mph /  11.3 km/h 41 % 0 in /  0.0 mm
20:37 85.6 °F /  29.8 °C 59.2 °F /  15.1 °C 30.1 in /  1017.5 hPa ESE 1 mph /  1.6 km/h 7 mph /  11.3 km/h 41 % 0 in /  0.0 mm
20:42 85.5 °F /  29.7 °C 59 °F /  15.0 °C 30.1 in /  1017.5 hPa East 2 mph /  3.2 km/h 6 mph /  9.7 km/h 41 % 0 in /  0.0 mm
20:47 85.3 °F /  29.6 °C 59.5 °F /  15.3 °C 30.1 in /  1017.5 hPa NE 1 mph /  1.6 km/h 6 mph /  9.7 km/h 42 % 0 in /  0.0 mm
20:52 84.9 °F /  29.4 °C 59.2 °F /  15.1 °C 30.1 in /  1017.5 hPa East 1 mph /  1.6 km/h 5 mph /  8.0 km/h 42 % 0 in /  0.0 mm
20:57 84.6 °F /  29.2 °C 59.5 °F /  15.3 °C 30.1 in /  1017.5 hPa East 1 mph /  1.6 km/h 5 mph /  8.0 km/h 43 % 0 in /  0.0 mm
21:02 84.4 °F /  29.1 °C 59.4 °F /  15.2 °C 30.1 in /  1017.5 hPa East 1 mph /  1.6 km/h 4 mph /  6.4 km/h 43 % 0 in /  0.0 mm
21:07 83.8 °F /  28.8 °C 59.5 °F /  15.3 °C 30.1 in /  1017.5 hPa Calm   4 mph /  6.4 km/h 44 % 0 in /  0.0 mm
21:12 83.3 °F /  28.5 °C 59.7 °F /  15.4 °C 30.1 in /  1017.8 hPa East 1 mph /  1.6 km/h 2 mph /  3.2 km/h 45 % 0 in /  0.0 mm
21:17 82.8 °F /  28.2 °C 59.9 °F /  15.5 °C 30.1 in /  1017.8 hPa Calm   2 mph /  3.2 km/h 46 % 0 in /  0.0 mm
21:22 82.2 °F /  27.9 °C 59.9 °F /  15.5 °C 30.1 in /  1017.8 hPa Calm   2 mph /  3.2 km/h 47 % 0 in /  0.0 mm
21:32 81.1 °F /  27.3 °C 60.1 °F /  15.6 °C 30.1 in /  1017.5 hPa Calm   1 mph /  1.6 km/h 49 % 0 in /  0.0 mm
21:37 80.8 °F /  27.1 °C 60.4 °F /  15.8 °C 30.1 in /  1017.8 hPa Calm   1 mph /  1.6 km/h 50 % 0 in /  0.0 mm
21:42 80.2 °F /  26.8 °C 61 °F /  16.1 °C 30.1 in /  1017.8 hPa Calm   1 mph /  1.6 km/h 52 % 0 in /  0.0 mm
21:52 79 °F /  26.1 °C 60.4 °F /  15.8 °C 30.1 in /  1017.8 hPa Calm   1 mph /  1.6 km/h 53 % 0 in /  0.0 mm
21:57 78.4 °F /  25.8 °C 60.4 °F /  15.8 °C 30.1 in /  1017.8 hPa Calm     54 % 0 in /  0.0 mm
22:07 77.5 °F /  25.3 °C 60.1 °F /  15.6 °C 30.1 in /  1017.8 hPa Calm     55 % 0 in /  0.0 mm
22:12 77.2 °F /  25.1 °C 60.3 °F /  15.7 °C 30.1 in /  1017.8 hPa Calm     56 % 0 in /  0.0 mm
22:17 77.2 °F /  25.1 °C 60.3 °F /  15.7 °C 30.1 in /  1017.8 hPa North 1 mph /  1.6 km/h   56 % 0 in /  0.0 mm
22:22 77 °F /  25.0 °C 60.1 °F /  15.6 °C 30.1 in /  1017.8 hPa Calm   1 mph /  1.6 km/h 56 % 0 in /  0.0 mm
22:27 76.6 °F /  24.8 °C 60.3 °F /  15.7 °C 30.1 in /  1017.8 hPa NW 1 mph /  1.6 km/h 1 mph /  1.6 km/h 57 % 0 in /  0.0 mm
22:32 76.3 °F /  24.6 °C 59.9 °F /  15.5 °C 30.1 in /  1017.8 hPa Calm   2 mph /  3.2 km/h 57 % 0 in /  0.0 mm
22:37 75.7 °F /  24.3 °C 59.9 °F /  15.5 °C 30.1 in /  1017.8 hPa Calm   2 mph /  3.2 km/h 58 % 0 in /  0.0 mm
22:42 75.4 °F /  24.1 °C 60.1 °F /  15.6 °C 30.1 in /  1017.8 hPa Calm   2 mph /  3.2 km/h 59 % 0 in /  0.0 mm
22:47 75.2 °F /  24.0 °C 59.9 °F /  15.5 °C 30.1 in /  1017.8 hPa NNW 1 mph /  1.6 km/h   59 % 0 in /  0.0 mm
22:52 75 °F /  23.9 °C 59.7 °F /  15.4 °C 30.1 in /  1017.8 hPa North 1 mph /  1.6 km/h 2 mph /  3.2 km/h 59 % 0 in /  0.0 mm
22:57 74.8 °F /  23.8 °C 60.1 °F /  15.6 °C 30.1 in /  1017.8 hPa North 1 mph /  1.6 km/h 2 mph /  3.2 km/h 60 % 0 in /  0.0 mm
23:02 74.7 °F /  23.7 °C 59.9 °F /  15.5 °C 30.1 in /  1017.8 hPa Calm   2 mph /  3.2 km/h 60 % 0 in /  0.0 mm
23:12 73.6 °F /  23.1 °C 60.3 °F /  15.7 °C 30.1 in /  1017.8 hPa Calm   2 mph /  3.2 km/h 63 % 0 in /  0.0 mm
23:17 73 °F /  22.8 °C 60.1 °F /  15.6 °C 30.1 in /  1017.8 hPa Calm   1 mph /  1.6 km/h 64 % 0 in /  0.0 mm
23:22 72.7 °F /  22.6 °C 60.3 °F /  15.7 °C 30.1 in /  1017.8 hPa Calm   1 mph /  1.6 km/h 65 % 0 in /  0.0 mm
23:27 72.9 °F /  22.7 °C 60.4 °F /  15.8 °C 30.1 in /  1017.8 hPa Calm   1 mph /  1.6 km/h 65 % 0 in /  0.0 mm
23:32 72.7 °F /  22.6 °C 60.3 °F /  15.7 °C 30.1 in /  1017.8 hPa NNE 2 mph /  3.2 km/h 2 mph /  3.2 km/h 65 % 0 in /  0.0 mm
23:37 72.3 °F /  22.4 °C 60.3 °F /  15.7 °C 30.1 in /  1017.8 hPa NNW 2 mph /  3.2 km/h 3 mph /  4.8 km/h 66 % 0 in /  0.0 mm
23:42 72.3 °F /  22.4 °C 60.3 °F /  15.7 °C 30.1 in /  1017.8 hPa NW 1 mph /  1.6 km/h 3 mph /  4.8 km/h 66 % 0 in /  0.0 mm
23:47 72.5 °F /  22.5 °C 60.4 °F /  15.8 °C 30.1 in /  1017.8 hPa Calm   3 mph /  4.8 km/h 66 % 0 in /  0.0 mm
23:52 72.1 °F /  22.3 °C 60.1 °F /  15.6 °C 30.1 in /  1017.8 hPa Calm   3 mph /  4.8 km/h 66 % 0 in /  0.0 mm
23:57 72 °F /  22.2 °C 60.4 °F /  15.8 °C 30.1 in /  1017.8 hPa Calm   3 mph /  4.8 km/h 67 % 0 in /  0.0 mm
Meteo18
Compliments of Weather Underground - 4 mb

Script developed by  Jim McMurry - jmcmurry@mwt.net Adapted for the template by  Wim van der Kuil - Leuven-Template.eu

You find our weather info also at:

European Weather Network

Weather Underground

Equipment we use:

Weather-station
Davis Vue

Weather-program
Meteohub

Weather-server
Raspberry PI 2 B+

Provider
1 and 1

Davis Vue

Meteohub

Raspberry PI 2 B+

1 and 1